R Medellin — 001138 — position and weather

sailwx.info

Track history (hours):
 
Tides and Currents Weather Stations Pressure Air Temp Water Temp Dewpoint Dewpoint Depression Visibility Wind Speed Wind Dir Waves Ship Positions

R Medellin

Last reported at 2018-Jun-17 15:10 UTC. Time now 2018-Jun-23 04:43 UTC.
Position N 10°09' W 075°30'.

Length 18 m.

Type: Tug. MMSI: 627214286.

Date/timePositionNaut miles runAvg speedWind from/ knotsBaromVisibWave heightAir tempDewpointWater temp
2018-Jun-17 15:10N 10°09' W 075°30'1 4.2
2018-Jun-17 15:00N 10°09' W 075°30'3 4.6
2018-Jun-17 14:27N 10°12' W 075°31'2 4.6
2018-Jun-17 13:59N 10°14' W 075°31'2 3.5
2018-Jun-17 13:30N 10°16' W 075°31'0 0.1
2018-Jun-17 12:59N 10°16' W 075°31'0 0.1
2018-Jun-17 12:23N 10°16' W 075°31'0 0.1
2018-Jun-17 11:59N 10°16' W 075°31'1 1.2
2018-Jun-17 11:26N 10°16' W 075°31'0 0.0
2018-Jun-17 10:56N 10°16' W 075°31'0 0.0
2018-Jun-17 10:26N 10°16' W 075°31'0 0.0
2018-Jun-17 09:56N 10°16' W 075°31'0 0.0
2018-Jun-17 09:20N 10°16' W 075°31'0 0.0
2018-Jun-17 08:56N 10°16' W 075°31'0 0.0
2018-Jun-17 08:26N 10°16' W 075°31'0 0.0
2018-Jun-17 07:56N 10°16' W 075°31'0 0.0
2018-Jun-17 07:26N 10°16' W 075°31'0 0.0
2018-Jun-17 06:56N 10°16' W 075°31'0 0.0
2018-Jun-17 06:20N 10°16' W 075°31'0 0.0
2018-Jun-17 05:56N 10°16' W 075°31'0 0.0
2018-Jun-17 05:20N 10°16' W 075°31'0 0.0
2018-Jun-17 04:56N 10°16' W 075°31'0 0.0
2018-Jun-17 04:26N 10°16' W 075°31'0 0.0
2018-Jun-17 02:44N 10°16' W 075°31'0 0.0
2018-Jun-17 02:26N 10°16' W 075°31'0 0.0
2018-Jun-17 01:56N 10°16' W 075°31'0 0.0
2018-Jun-17 01:26N 10°16' W 075°31'0 0.0
2018-Jun-17 00:56N 10°16' W 075°31'0 0.0
2018-Jun-17 00:20N 10°16' W 075°31'0 0.8
2018-Jun-17 00:00N 10°17' W 075°31'  
2018-Jun-14 05:07N 10°25' W 075°33'0 0.0
2018-Jun-14 04:58N 10°25' W 075°33'0 0.0
2018-Jun-13 23:46N 10°25' W 075°33'0 0.0
2018-Jun-13 23:28N 10°25' W 075°33'0 0.0
2018-Jun-13 22:22N 10°25' W 075°33'0 0.0
2018-Jun-13 21:52N 10°25' W 075°33'0 0.0
2018-Jun-13 21:04N 10°25' W 075°33'0 0.0
2018-Jun-13 18:16N 10°25' W 075°33'0 0.0
2018-Jun-13 00:46N 10°25' W 075°33'0 0.0
2018-Jun-13 00:16N 10°25' W 075°33'0 0.0
2018-Jun-12 12:07N 10°25' W 075°33'0 0.0
2018-Jun-12 11:55N 10°25' W 075°33'0 0.0
2018-Jun-12 11:07N 10°25' W 075°33'0 0.0
2018-Jun-12 10:58N 10°25' W 075°33'0 0.0
2018-Jun-12 09:43N 10°25' W 075°33'0 0.0
2018-Jun-12 05:28N 10°25' W 075°33'0 0.0
2018-Jun-12 02:55N 10°25' W 075°33'0 0.0
2018-Jun-12 02:22N 10°25' W 075°33'0 0.0
2018-Jun-12 01:58N 10°25' W 075°33'0 0.0
2018-Jun-11 16:34N 10°25' W 075°33'0 0.0
2018-Jun-11 16:28N 10°25' W 075°33'0 0.0
2018-Jun-11 15:40N 10°25' W 075°33'0 0.0
2018-Jun-11 15:22N 10°25' W 075°33'0 0.0
2018-Jun-11 14:22N 10°25' W 075°33'0 0.0
2018-Jun-11 13:52N 10°25' W 075°33'8 0.2
2018-Jun-10 00:14N 10°17' W 075°31'1 4.9
2018-Jun-09 23:59N 10°16' W 075°31'0 0.7
2018-Jun-09 23:26N 10°16' W 075°31'1 2.5
2018-Jun-09 22:58N 10°17' W 075°31'4 0.4
2018-Jun-09 11:50N 10°21' W 075°31'0 0.0
2018-Jun-09 11:08N 10°21' W 075°31'0 0.0
2018-Jun-09 10:56N 10°21' W 075°31'0 0.0
2018-Jun-09 10:23N 10°21' W 075°31'0 0.0
2018-Jun-09 08:38N 10°21' W 075°31'0 0.0
2018-Jun-09 08:08N 10°21' W 075°31'0 0.0
2018-Jun-09 07:50N 10°21' W 075°31'0 0.0
2018-Jun-09 07:18N 10°21' W 075°31'0 0.0
2018-Jun-09 06:59N 10°21' W 075°31'0 0.0
2018-Jun-09 06:08N 10°21' W 075°31'0 0.1
2018-Jun-09 05:56N 10°21' W 075°31'0 0.0
2018-Jun-09 05:29N 10°21' W 075°31'0 0.0
2018-Jun-09 04:54N 10°21' W 075°31'0 0.0
2018-Jun-09 04:23N 10°21' W 075°31'0 0.0
2018-Jun-09 04:00N 10°21' W 075°31'0 0.0
2018-Jun-09 03:26N 10°21' W 075°31'0 0.0
2018-Jun-09 02:56N 10°21' W 075°31'0 0.0
2018-Jun-09 02:20N 10°21' W 075°31'0 0.0
2018-Jun-09 01:56N 10°21' W 075°31'0 0.0
2018-Jun-09 00:56N 10°21' W 075°31'1 1.0
2018-Jun-09 00:24N 10°21' W 075°31'0 0.0
2018-Jun-08 23:18N 10°21' W 075°30'0 0.4
2018-Jun-08 22:49N 10°21' W 075°31'0 0.9
2018-Jun-08 22:24N 10°21' W 075°31'1 1.3
2018-Jun-08 22:00N 10°21' W 075°30'0 0.1
2018-Jun-08 21:30N 10°21' W 075°30'0 0.0
2018-Jun-08 20:51N 10°21' W 075°30'0 0.0
2018-Jun-08 20:27N 10°21' W 075°30'2 3.9
2018-Jun-08 19:59N 10°19' W 075°32'3 5.6
2018-Jun-08 19:29N 10°16' W 075°31'0 0.5
2018-Jun-08 18:59N 10°17' W 075°31'0 0.0
2018-Jun-08 18:29N 10°17' W 075°31'0 0.5
2018-Jun-08 17:55N 10°16' W 075°31'0 0.0
2018-Jun-08 17:25N 10°16' W 075°31'0 0.0
2018-Jun-08 16:59N 10°16' W 075°31'0 0.7
2018-Jun-08 16:29N 10°16' W 075°31'1 1.0
2018-Jun-08 15:59N 10°16' W 075°31'2 4.7
2018-Jun-08 15:30N 10°19' W 075°32'3 5.0
2018-Jun-08 15:00N 10°21' W 075°31'1 1.1
2018-Jun-08 14:30N 10°20' W 075°31'0 0.0
2018-Jun-08 14:00N 10°21' W 075°31'0 0.9
2018-Jun-08 13:27N 10°21' W 075°31'0 0.0
2018-Jun-08 13:00N 10°21' W 075°31'0 0.0
2018-Jun-08 12:30N 10°21' W 075°31'0 0.0
2018-Jun-08 12:00N 10°21' W 075°31'0 0.0
2018-Jun-08 11:30N 10°21' W 075°31'0 0.0
2018-Jun-08 11:00N 10°21' W 075°31'0 0.0
2018-Jun-08 00:32N 10°21' W 075°31'0 0.0
2018-Jun-08 00:29N 10°21' W 075°31'0 0.6
2018-Jun-07 23:47N 10°21' W 075°31'0 1.0
2018-Jun-07 23:25N 10°21' W 075°31'0 0.0
2018-Jun-07 22:58N 10°21' W 075°31'0 0.1
2018-Jun-07 22:27N 10°21' W 075°31'0 0.9
2018-Jun-07 21:57N 10°21' W 075°31'0 0.1
2018-Jun-07 21:29N 10°21' W 075°31'0 0.1
2018-Jun-07 20:47N 10°21' W 075°31'0 0.6
2018-Jun-07 20:25N 10°21' W 075°31'2 5.1
2018-Jun-07 20:00N 10°19' W 075°32'2 4.2
2018-Jun-07 19:30N 10°17' W 075°31'2 3.9
2018-Jun-07 18:59N 10°15' W 075°31'3 5.9
2018-Jun-07 18:30N 10°12' W 075°31'  
Track history (hours):
 
Tides and Currents Weather Stations Pressure Air Temp Water Temp Dewpoint Dewpoint Depression Visibility Wind Speed Wind Dir Waves Ship Positions

R Medellin

Last reported at 2018-Jun-17 15:10 UTC. Time now 2018-Jun-23 04:43 UTC.
Position N 10°09' W 075°30'.

Length 18 m.

Type: Tug. MMSI: 627214286.

Date/timePositionNaut miles runAvg speedWind from/ knotsBaromVisibWave heightAir tempDewpointWater temp
2018-Jun-17 15:10N 10°09' W 075°30'1 4.2
2018-Jun-17 15:00N 10°09' W 075°30'3 4.6
2018-Jun-17 14:27N 10°12' W 075°31'2 4.6
2018-Jun-17 13:59N 10°14' W 075°31'2 3.5
2018-Jun-17 13:30N 10°16' W 075°31'0 0.1
2018-Jun-17 12:59N 10°16' W 075°31'0 0.1
2018-Jun-17 12:23N 10°16' W 075°31'0 0.1
2018-Jun-17 11:59N 10°16' W 075°31'1 1.2
2018-Jun-17 11:26N 10°16' W 075°31'0 0.0
2018-Jun-17 10:56N 10°16' W 075°31'0 0.0
2018-Jun-17 10:26N 10°16' W 075°31'0 0.0
2018-Jun-17 09:56N 10°16' W 075°31'0 0.0
2018-Jun-17 09:20N 10°16' W 075°31'0 0.0
2018-Jun-17 08:56N 10°16' W 075°31'0 0.0
2018-Jun-17 08:26N 10°16' W 075°31'0 0.0
2018-Jun-17 07:56N 10°16' W 075°31'0 0.0
2018-Jun-17 07:26N 10°16' W 075°31'0 0.0
2018-Jun-17 06:56N 10°16' W 075°31'0 0.0
2018-Jun-17 06:20N 10°16' W 075°31'0 0.0
2018-Jun-17 05:56N 10°16' W 075°31'0 0.0
2018-Jun-17 05:20N 10°16' W 075°31'0 0.0
2018-Jun-17 04:56N 10°16' W 075°31'0 0.0
2018-Jun-17 04:26N 10°16' W 075°31'0 0.0
2018-Jun-17 02:44N 10°16' W 075°31'0 0.0
2018-Jun-17 02:26N 10°16' W 075°31'0 0.0
2018-Jun-17 01:56N 10°16' W 075°31'0 0.0
2018-Jun-17 01:26N 10°16' W 075°31'0 0.0
2018-Jun-17 00:56N 10°16' W 075°31'0 0.0
2018-Jun-17 00:20N 10°16' W 075°31'0 0.8
2018-Jun-17 00:00N 10°17' W 075°31'  
2018-Jun-14 05:07N 10°25' W 075°33'0 0.0
2018-Jun-14 04:58N 10°25' W 075°33'0 0.0
2018-Jun-13 23:46N 10°25' W 075°33'0 0.0
2018-Jun-13 23:28N 10°25' W 075°33'0 0.0
2018-Jun-13 22:22N 10°25' W 075°33'0 0.0
2018-Jun-13 21:52N 10°25' W 075°33'0 0.0
2018-Jun-13 21:04N 10°25' W 075°33'0 0.0
2018-Jun-13 18:16N 10°25' W 075°33'0 0.0
2018-Jun-13 00:46N 10°25' W 075°33'0 0.0
2018-Jun-13 00:16N 10°25' W 075°33'0 0.0
2018-Jun-12 12:07N 10°25' W 075°33'0 0.0
2018-Jun-12 11:55N 10°25' W 075°33'0 0.0
2018-Jun-12 11:07N 10°25' W 075°33'0 0.0
2018-Jun-12 10:58N 10°25' W 075°33'0 0.0
2018-Jun-12 09:43N 10°25' W 075°33'0 0.0
2018-Jun-12 05:28N 10°25' W 075°33'0 0.0
2018-Jun-12 02:55N 10°25' W 075°33'0 0.0
2018-Jun-12 02:22N 10°25' W 075°33'0 0.0
2018-Jun-12 01:58N 10°25' W 075°33'0 0.0
2018-Jun-11 16:34N 10°25' W 075°33'0 0.0
2018-Jun-11 16:28N 10°25' W 075°33'0 0.0
2018-Jun-11 15:40N 10°25' W 075°33'0 0.0
2018-Jun-11 15:22N 10°25' W 075°33'0 0.0
2018-Jun-11 14:22N 10°25' W 075°33'0 0.0
2018-Jun-11 13:52N 10°25' W 075°33'8 0.2
2018-Jun-10 00:14N 10°17' W 075°31'1 4.9
2018-Jun-09 23:59N 10°16' W 075°31'0 0.7
2018-Jun-09 23:26N 10°16' W 075°31'1 2.5
2018-Jun-09 22:58N 10°17' W 075°31'4 0.4
2018-Jun-09 11:50N 10°21' W 075°31'0 0.0
2018-Jun-09 11:08N 10°21' W 075°31'0 0.0
2018-Jun-09 10:56N 10°21' W 075°31'0 0.0
2018-Jun-09 10:23N 10°21' W 075°31'0 0.0
2018-Jun-09 08:38N 10°21' W 075°31'0 0.0
2018-Jun-09 08:08N 10°21' W 075°31'0 0.0
2018-Jun-09 07:50N 10°21' W 075°31'0 0.0
2018-Jun-09 07:18N 10°21' W 075°31'0 0.0
2018-Jun-09 06:59N 10°21' W 075°31'0 0.0
2018-Jun-09 06:08N 10°21' W 075°31'0 0.1
2018-Jun-09 05:56N 10°21' W 075°31'0 0.0
2018-Jun-09 05:29N 10°21' W 075°31'0 0.0
2018-Jun-09 04:54N 10°21' W 075°31'0 0.0
2018-Jun-09 04:23N 10°21' W 075°31'0 0.0
2018-Jun-09 04:00N 10°21' W 075°31'0 0.0
2018-Jun-09 03:26N 10°21' W 075°31'0 0.0
2018-Jun-09 02:56N 10°21' W 075°31'0 0.0
2018-Jun-09 02:20N 10°21' W 075°31'0 0.0
2018-Jun-09 01:56N 10°21' W 075°31'0 0.0
2018-Jun-09 00:56N 10°21' W 075°31'1 1.0
2018-Jun-09 00:24N 10°21' W 075°31'0 0.0
2018-Jun-08 23:18N 10°21' W 075°30'0 0.4
2018-Jun-08 22:49N 10°21' W 075°31'0 0.9
2018-Jun-08 22:24N 10°21' W 075°31'1 1.3
2018-Jun-08 22:00N 10°21' W 075°30'0 0.1
2018-Jun-08 21:30N 10°21' W 075°30'0 0.0
2018-Jun-08 20:51N 10°21' W 075°30'0 0.0
2018-Jun-08 20:27N 10°21' W 075°30'2 3.9
2018-Jun-08 19:59N 10°19' W 075°32'3 5.6
2018-Jun-08 19:29N 10°16' W 075°31'0 0.5
2018-Jun-08 18:59N 10°17' W 075°31'0 0.0
2018-Jun-08 18:29N 10°17' W 075°31'0 0.5
2018-Jun-08 17:55N 10°16' W 075°31'0 0.0
2018-Jun-08 17:25N 10°16' W 075°31'0 0.0
2018-Jun-08 16:59N 10°16' W 075°31'0 0.7
2018-Jun-08 16:29N 10°16' W 075°31'1 1.0
2018-Jun-08 15:59N 10°16' W 075°31'2 4.7
2018-Jun-08 15:30N 10°19' W 075°32'3 5.0
2018-Jun-08 15:00N 10°21' W 075°31'1 1.1
2018-Jun-08 14:30N 10°20' W 075°31'0 0.0
2018-Jun-08 14:00N 10°21' W 075°31'0 0.9
2018-Jun-08 13:27N 10°21' W 075°31'0 0.0
2018-Jun-08 13:00N 10°21' W 075°31'0 0.0
2018-Jun-08 12:30N 10°21' W 075°31'0 0.0
2018-Jun-08 12:00N 10°21' W 075°31'0 0.0
2018-Jun-08 11:30N 10°21' W 075°31'0 0.0
2018-Jun-08 11:00N 10°21' W 075°31'0 0.0
2018-Jun-08 00:32N 10°21' W 075°31'0 0.0
2018-Jun-08 00:29N 10°21' W 075°31'0 0.6
2018-Jun-07 23:47N 10°21' W 075°31'0 1.0
2018-Jun-07 23:25N 10°21' W 075°31'0 0.0
2018-Jun-07 22:58N 10°21' W 075°31'0 0.1
2018-Jun-07 22:27N 10°21' W 075°31'0 0.9
2018-Jun-07 21:57N 10°21' W 075°31'0 0.1
2018-Jun-07 21:29N 10°21' W 075°31'0 0.1
2018-Jun-07 20:47N 10°21' W 075°31'0 0.6
2018-Jun-07 20:25N 10°21' W 075°31'2 5.1
2018-Jun-07 20:00N 10°19' W 075°32'2 4.2
2018-Jun-07 19:30N 10°17' W 075°31'2 3.9
2018-Jun-07 18:59N 10°15' W 075°31'3 5.9
2018-Jun-07 18:30N 10°12' W 075°31'  

Dump ship's entire track history